Time;durP1;ratioP1;P1;durP2;ratioP2;P2;SDS_P1;SDS_P2;PMS_P1;PMS_P2;Temp;Humidity;BMP_temperature;BMP_pressure;BME280_temperature;BME280_humidity;BME280_pressure;Samples;Min_cycle;Max_cycle;Signal;HPM_P1;HPM_P2
2022/12/22 03:27:43;;;;;;;3.05;1.48;;;13.90;72.20;;;;;;5068558;28;20039;-49
2022/12/22 03:30:09;;;;;;;2.92;1.30;;;13.90;72.00;;;;;;5067842;28;20123;-50
2022/12/22 03:32:34;;;;;;;3.22;1.23;;;13.90;72.10;;;;;;5067846;28;20496;-49
2022/12/22 03:35:00;;;;;;;2.08;1.20;;;13.90;72.20;;;;;;5067641;28;20566;-49
2022/12/22 03:37:26;;;;;;;1.90;1.10;;;13.90;71.60;;;;;;5068668;28;20078;-50
2022/12/22 03:39:51;;;;;;;1.83;1.20;;;13.90;71.30;;;;;;5068678;28;20098;-46
2022/12/22 03:47:45;;;;;;;2.75;1.63;;;13.90;71.90;;;;;;5067157;28;20039;-46
2022/12/22 03:50:11;;;;;;;4.22;1.52;;;13.90;71.90;;;;;;5066326;28;20044;-45
2022/12/22 03:52:36;;;;;;;2.33;1.00;;;13.90;71.70;;;;;;5068405;28;20044;-42
2022/12/22 03:55:02;;;;;;;2.50;1.40;;;13.90;72.10;;;;;;5067057;28;20090;-48
2022/12/22 03:57:28;;;;;;;3.97;1.38;;;13.90;72.10;;;;;;5067519;28;20421;-48
2022/12/22 03:59:53;;;;;;;4.10;1.48;;;13.90;72.00;;;;;;5067960;28;20044;-42
2022/12/22 04:02:19;;;;;;;2.03;1.20;;;13.90;71.70;;;;;;5066851;28;20060;-43
2022/12/22 04:04:44;;;;;;;3.60;1.60;;;13.90;71.80;;;;;;5066856;28;20493;-47
2022/12/22 04:07:10;;;;;;;3.80;2.00;;;13.90;71.90;;;;;;5066799;28;20032;-48
2022/12/22 04:12:52;;;;;;;5.95;1.77;;;13.90;71.90;;;;;;5066918;28;20052;-57
2022/12/22 04:15:06;;;;;;;4.15;1.52;;;13.90;71.80;;;;;;5064344;28;20562;-57
2022/12/22 04:17:32;;;;;;;4.78;2.17;;;13.90;71.80;;;;;;5066812;28;20505;-56
2022/12/22 04:19:57;;;;;;;3.60;1.45;;;13.90;72.20;;;;;;5067561;28;20036;-52
2022/12/22 04:22:23;;;;;;;2.55;1.10;;;13.90;71.90;;;;;;5067522;28;20062;-50
2022/12/22 04:24:48;;;;;;;2.70;1.48;;;13.90;71.80;;;;;;5067298;28;20044;-60
2022/12/22 04:27:14;;;;;;;4.50;1.50;;;13.90;71.50;;;;;;5066732;28;20055;-55
2022/12/22 04:29:39;;;;;;;2.08;1.20;;;13.90;71.80;;;;;;5067053;28;20114;-57
2022/12/22 04:32:05;;;;;;;2.63;1.50;;;13.90;71.90;;;;;;5066939;28;20044;-60
2022/12/22 04:34:30;;;;;;;4.43;1.83;;;13.90;71.70;;;;;;5066865;28;20051;-51
2022/12/22 04:36:56;;;;;;;2.05;1.30;;;13.90;71.80;;;;;;5067920;28;20079;-47
2022/12/22 04:39:22;;;;;;;3.25;1.58;;;13.90;71.80;;;;;;5067203;28;20083;-53
2022/12/22 04:41:47;;;;;;;4.32;1.50;;;13.90;71.60;;;;;;5067792;28;20094;-55
2022/12/22 04:44:13;;;;;;;2.22;1.30;;;13.90;71.90;;;;;;5066158;28;20074;-54
2022/12/22 04:46:38;;;;;;;3.17;1.38;;;13.90;72.30;;;;;;5067374;28;20138;-54
2022/12/22 04:49:04;;;;;;;2.50;1.35;;;13.90;71.60;;;;;;5066611;28;20047;-53
2022/12/22 04:51:29;;;;;;;4.15;1.48;;;13.90;71.50;;;;;;5067684;28;20139;-56
2022/12/22 04:53:55;;;;;;;3.42;1.45;;;13.90;71.50;;;;;;5066041;28;20036;-54
2022/12/22 04:56:20;;;;;;;4.40;1.58;;;13.90;71.50;;;;;;5066973;28;20036;-55
2022/12/22 04:58:46;;;;;;;3.45;1.50;;;13.90;71.50;;;;;;5067259;28;20055;-54
2022/12/22 05:01:14;;;;;;;2.90;1.40;;;13.90;71.30;;;;;;5067195;28;20044;-43
2022/12/22 05:03:39;;;;;;;2.45;1.35;;;13.90;71.50;;;;;;5083210;28;20044;-51
2022/12/22 05:06:05;;;;;;;4.20;1.75;;;13.90;71.70;;;;;;5066974;28;20097;-60
2022/12/22 05:08:31;;;;;;;4.63;1.55;;;13.90;71.80;;;;;;5066006;28;20041;-52
2022/12/22 05:10:56;;;;;;;3.08;1.13;;;13.90;71.80;;;;;;5067332;28;20452;-46
2022/12/22 05:13:22;;;;;;;3.05;1.50;;;14.00;71.90;;;;;;5064173;28;20938;-50
2022/12/22 05:15:47;;;;;;;6.13;1.77;;;13.90;72.10;;;;;;5068238;28;20060;-47
2022/12/22 05:18:13;;;;;;;2.47;1.50;;;13.90;71.90;;;;;;5066695;28;21715;-48
2022/12/22 05:20:39;;;;;;;2.53;1.33;;;13.90;71.80;;;;;;5070035;28;20048;-52
2022/12/22 05:23:04;;;;;;;3.47;1.27;;;13.90;71.60;;;;;;5068724;28;20597;-31
2022/12/22 05:25:30;;;;;;;4.40;2.00;;;13.90;71.70;;;;;;5071061;28;20048;-55
2022/12/22 05:27:55;;;;;;;3.63;1.65;;;13.90;72.10;;;;;;5071325;28;20033;-47
2022/12/22 05:30:21;;;;;;;2.42;1.83;;;13.90;71.50;;;;;;5069479;28;20474;-54
2022/12/22 05:32:47;;;;;;;3.72;1.50;;;13.90;72.70;;;;;;5071413;28;20049;-53
2022/12/22 05:35:12;;;;;;;3.22;1.42;;;13.90;71.50;;;;;;5070255;28;20060;-54
2022/12/22 05:37:38;;;;;;;4.13;1.52;;;13.90;71.60;;;;;;5070464;28;20049;-55
2022/12/22 05:40:04;;;;;;;3.15;1.70;;;13.90;71.40;;;;;;5070096;28;20049;-54
2022/12/22 05:42:36;;;;;;;2.40;1.50;;;13.90;71.00;;;;;;5070073;28;20505;-53
2022/12/22 05:45:18;;;;;;;3.55;1.60;;;13.90;71.10;;;;;;5070708;28;20516;-47
2022/12/22 05:47:45;;;;;;;3.45;1.60;;;13.90;71.70;;;;;;5069916;28;20131;-56
2022/12/22 05:50:11;;;;;;;2.85;1.40;;;13.90;71.90;;;;;;5085966;28;20294;-55
2022/12/22 05:52:37;;;;;;;2.92;1.67;;;13.90;71.40;;;;;;5070347;28;20081;-46
2022/12/22 05:55:03;;;;;;;1.95;1.20;;;13.90;71.60;;;;;;5069838;28;20044;-53
2022/12/22 05:57:29;;;;;;;4.13;1.60;;;13.90;71.40;;;;;;5070037;28;20261;-47
2022/12/22 05:59:54;;;;;;;4.20;1.42;;;13.90;71.30;;;;;;5070658;28;20135;-51
2022/12/22 06:02:20;;;;;;;3.47;1.50;;;13.90;71.70;;;;;;5069674;28;20044;-46
2022/12/22 06:04:45;;;;;;;2.63;1.10;;;13.90;71.70;;;;;;5069696;28;20072;-47
2022/12/22 06:07:11;;;;;;;2.60;1.50;;;13.90;71.70;;;;;;5068874;28;20057;-44
2022/12/22 06:09:37;;;;;;;4.45;1.75;;;13.90;71.90;;;;;;5069564;28;20508;-43
2022/12/22 06:12:02;;;;;;;2.08;1.40;;;13.90;71.50;;;;;;5070712;28;20032;-49
2022/12/22 06:14:28;;;;;;;3.58;1.65;;;13.90;71.30;;;;;;5069173;28;20502;-54
2022/12/22 06:16:54;;;;;;;3.65;1.67;;;13.90;71.30;;;;;;5069617;28;20036;-57
2022/12/22 06:19:19;;;;;;;2.22;1.30;;;13.90;71.50;;;;;;5069329;28;20043;-52
2022/12/22 06:21:45;;;;;;;3.08;1.52;;;13.90;71.30;;;;;;5070263;28;20075;-48
2022/12/22 06:24:11;;;;;;;1.85;1.15;;;13.90;71.10;;;;;;5069197;28;20036;-53
2022/12/22 06:26:36;;;;;;;3.38;1.58;;;13.90;72.00;;;;;;5069552;28;20063;-44
2022/12/22 06:29:02;;;;;;;3.83;1.60;;;13.90;71.30;;;;;;5070156;28;20046;-47
2022/12/22 06:31:27;;;;;;;2.72;1.60;;;14.00;71.30;;;;;;5068028;28;21269;-46
2022/12/22 06:33:53;;;;;;;3.20;1.58;;;13.90;71.50;;;;;;5069011;28;20097;-56
2022/12/22 06:36:18;;;;;;;2.65;2.10;;;13.90;71.40;;;;;;5069053;28;20169;-47
2022/12/22 06:38:44;;;;;;;3.45;1.55;;;13.90;71.10;;;;;;5069088;28;20044;-58
2022/12/22 06:41:09;;;;;;;2.92;1.42;;;13.90;72.40;;;;;;5068605;28;20047;-40
2022/12/22 06:43:35;;;;;;;3.83;1.70;;;13.90;71.10;;;;;;5069068;28;20074;-46
2022/12/22 06:46:01;;;;;;;2.42;1.60;;;13.90;71.30;;;;;;5069071;28;20044;-49
2022/12/22 06:48:26;;;;;;;3.22;1.80;;;13.90;71.40;;;;;;5068172;28;20446;-49
2022/12/22 06:50:56;;;;;;;3.35;1.60;;;13.90;71.10;;;;;;5068693;28;20037;-45
2022/12/22 06:53:22;;;;;;;3.60;1.58;;;13.90;71.50;;;;;;5064998;28;20490;-47
2022/12/22 06:55:47;;;;;;;2.58;1.30;;;13.90;71.10;;;;;;5069511;28;20501;-17
2022/12/22 06:58:13;;;;;;;2.40;1.25;;;14.00;71.50;;;;;;5068588;28;20037;-20
2022/12/22 07:00:39;;;;;;;3.28;1.50;;;13.90;71.30;;;;;;5069256;28;20094;-15
2022/12/22 07:03:04;;;;;;;4.00;1.67;;;13.90;71.50;;;;;;5065960;28;20052;-17
2022/12/22 07:05:30;;;;;;;2.80;1.42;;;13.90;71.60;;;;;;5068438;28;20040;-15
2022/12/22 07:07:56;;;;;;;2.42;1.33;;;13.90;71.50;;;;;;5069073;28;20049;-16
2022/12/22 07:10:56;;;;;;;3.60;1.60;;;13.90;71.40;;;;;;5068610;28;20498;-15
2022/12/22 07:13:18;;;;;;;3.97;1.45;;;13.90;71.30;;;;;;5068518;28;20052;-15
2022/12/22 07:15:44;;;;;;;2.42;1.40;;;13.90;71.60;;;;;;5068106;28;20056;-33
2022/12/22 07:18:11;;;;;;;3.80;1.33;;;13.90;71.20;;;;;;5069013;28;20602;-19
2022/12/22 07:20:36;;;;;;;2.05;1.30;;;13.90;71.20;;;;;;5068639;28;20040;-18
2022/12/22 07:23:02;;;;;;;2.95;1.17;;;13.90;71.10;;;;;;5067953;28;20097;-24
2022/12/22 07:25:27;;;;;;;2.58;1.15;;;13.90;71.40;;;;;;5067716;28;20045;-15
2022/12/22 07:27:53;;;;;;;2.50;1.70;;;13.90;71.30;;;;;;5069474;28;20032;-19
2022/12/22 07:30:18;;;;;;;2.88;1.40;;;13.90;71.30;;;;;;5067631;28;20060;-22
2022/12/22 07:32:44;;;;;;;2.80;1.38;;;13.90;71.20;;;;;;5068509;28;20048;-17
2022/12/22 07:35:09;;;;;;;2.13;1.27;;;13.90;71.30;;;;;;5068852;28;20103;-23
2022/12/22 07:37:35;;;;;;;3.35;1.23;;;13.90;71.40;;;;;;5068097;28;20040;-21
2022/12/22 07:40:00;;;;;;;3.50;1.50;;;13.90;71.30;;;;;;5068572;28;20557;-19
2022/12/22 07:42:44;;;;;;;2.95;1.40;;;13.90;71.20;;;;;;5067344;28;20094;-15
2022/12/22 07:45:14;;;;;;;3.10;1.80;;;13.90;71.70;;;;;;5067735;28;20260;-17
2022/12/22 07:47:39;;;;;;;2.33;1.20;;;13.90;71.20;;;;;;5068061;28;20063;-16
2022/12/22 07:50:24;;;;;;;3.65;1.58;;;13.90;71.40;;;;;;5067622;28;20489;-15
2022/12/22 07:53:00;;;;;;;4.38;1.75;;;13.90;71.90;;;;;;5064590;28;20105;-15
2022/12/22 07:55:28;;;;;;;3.20;1.80;;;13.90;71.30;;;;;;5063950;28;20065;-20
2022/12/22 07:57:54;;;;;;;2.85;1.60;;;13.90;71.10;;;;;;5067310;28;20090;-14
2022/12/22 08:00:20;;;;;;;3.72;1.52;;;13.90;71.00;;;;;;5067765;28;20033;-14
2022/12/22 08:02:50;;;;;;;2.70;1.35;;;13.90;71.20;;;;;;5067700;28;20045;-15
2022/12/22 08:05:15;;;;;;;3.30;1.48;;;13.90;71.20;;;;;;5067243;28;20040;-15
2022/12/22 08:07:41;;;;;;;2.28;1.17;;;13.90;71.10;;;;;;5068106;28;20052;-15
2022/12/22 08:10:07;;;;;;;3.03;1.50;;;13.90;70.90;;;;;;5067949;28;20032;-22
2022/12/22 08:12:33;;;;;;;3.35;1.65;;;13.90;71.40;;;;;;5067017;28;20114;-16
2022/12/22 08:14:58;;;;;;;3.00;1.60;;;13.90;71.10;;;;;;5067309;28;20064;-15
2022/12/22 08:17:26;;;;;;;2.75;1.20;;;13.90;71.00;;;;;;5067651;28;20413;-18
2022/12/22 08:19:52;;;;;;;4.45;1.35;;;13.90;71.10;;;;;;5066327;28;20071;-15
2022/12/22 08:22:18;;;;;;;2.05;1.30;;;13.90;71.20;;;;;;5067163;28;20574;-18
2022/12/22 08:24:43;;;;;;;3.33;1.50;;;13.90;71.50;;;;;;5067184;28;20041;-18
2022/12/22 08:27:12;;;;;;;3.30;1.60;;;13.90;71.10;;;;;;5067785;28;20044;-22
2022/12/22 08:29:39;;;;;;;2.65;1.40;;;13.90;71.50;;;;;;5067061;28;20044;-19
2022/12/22 08:32:05;;;;;;;3.30;1.33;;;13.90;71.10;;;;;;5083405;28;20048;-22
2022/12/22 08:34:30;;;;;;;2.95;1.30;;;13.90;71.30;;;;;;5081762;28;20122;-28
2022/12/22 08:36:58;;;;;;;2.33;1.33;;;13.90;71.30;;;;;;5066403;28;20036;-17
2022/12/22 08:39:24;;;;;;;2.33;1.30;;;13.90;71.20;;;;;;5082136;28;20522;-14
2022/12/22 08:41:50;;;;;;;2.22;1.33;;;13.90;71.60;;;;;;5081588;28;20525;-28
2022/12/22 08:44:19;;;;;;;3.15;1.58;;;13.90;71.00;;;;;;5082967;28;20040;-27
2022/12/22 08:46:44;;;;;;;3.67;1.33;;;13.90;71.50;;;;;;5066381;28;20063;-20
2022/12/22 08:49:10;;;;;;;3.03;1.45;;;13.90;71.30;;;;;;5067463;28;20049;-24
2022/12/22 08:51:35;;;;;;;2.72;1.50;;;13.90;71.30;;;;;;5066338;28;20048;-16
2022/12/22 08:54:01;;;;;;;1.60;1.20;;;13.90;71.60;;;;;;5067405;28;20603;-24
2022/12/22 08:56:26;;;;;;;2.63;1.42;;;13.90;71.50;;;;;;5066997;28;20064;-16
2022/12/22 08:58:52;;;;;;;3.20;1.40;;;13.90;71.90;;;;;;5066023;28;20033;-15
2022/12/22 09:01:19;;;;;;;2.50;1.35;;;13.90;71.10;;;;;;5064302;28;20498;-14
2022/12/22 09:03:51;;;;;;;2.17;1.10;;;13.90;71.50;;;;;;5063244;28;20055;-14
2022/12/22 09:06:17;;;;;;;4.10;1.92;;;13.90;71.60;;;;;;5066603;28;20513;-14
2022/12/22 09:08:43;;;;;;;3.05;1.02;;;13.90;71.50;;;;;;5067112;28;20078;-18
2022/12/22 09:11:09;;;;;;;2.47;1.63;;;13.90;71.10;;;;;;5066569;28;20040;-14
2022/12/22 09:13:34;;;;;;;2.50;1.63;;;13.90;71.30;;;;;;5065841;28;20040;-14
2022/12/22 09:16:04;;;;;;;2.47;1.40;;;14.00;71.50;;;;;;5067350;28;20041;-22
2022/12/22 09:18:29;;;;;;;3.08;1.55;;;14.00;71.60;;;;;;5065594;28;20043;-14
2022/12/22 09:20:55;;;;;;;2.42;1.20;;;14.00;71.20;;;;;;5067480;28;20389;-14
2022/12/22 09:23:21;;;;;;;2.10;1.55;;;13.90;71.50;;;;;;5066280;28;20044;-14
2022/12/22 09:25:46;;;;;;;2.13;1.50;;;13.90;71.40;;;;;;5066578;28;20141;-19
2022/12/22 09:28:12;;;;;;;2.38;1.30;;;13.90;71.60;;;;;;5067070;28;20036;-13
2022/12/22 09:30:38;;;;;;;3.20;1.60;;;13.90;71.50;;;;;;5066181;28;20560;-13
2022/12/22 09:33:03;;;;;;;3.55;1.30;;;14.00;71.70;;;;;;5067080;28;20078;-16
2022/12/22 09:35:29;;;;;;;2.72;1.52;;;13.90;71.70;;;;;;5065273;28;20047;-16
2022/12/22 09:37:54;;;;;;;3.92;1.50;;;13.90;71.40;;;;;;5067113;28;20052;-15
2022/12/22 09:40:21;;;;;;;3.72;1.50;;;13.90;71.80;;;;;;5067867;28;20505;-23
2022/12/22 09:42:46;;;;;;;2.33;1.52;;;14.00;71.70;;;;;;5067719;28;20051;-13
2022/12/22 09:45:18;;;;;;;3.30;1.55;;;14.00;71.30;;;;;;5067585;28;20037;-15
2022/12/22 09:47:45;;;;;;;2.70;1.50;;;14.00;71.70;;;;;;5065254;28;20041;-27
2022/12/22 09:50:14;;;;;;;2.20;1.15;;;14.00;71.60;;;;;;5065609;28;20509;-31
2022/12/22 09:52:52;;;;;;;3.38;1.70;;;14.00;71.40;;;;;;5081135;28;22356;-27
2022/12/22 09:55:23;;;;;;;3.53;1.63;;;14.00;71.70;;;;;;5082038;28;20028;-14
2022/12/22 09:57:49;;;;;;;3.38;2.10;;;13.90;71.80;;;;;;5065613;28;20835;-16
2022/12/22 10:00:17;;;;;;;1.55;1.17;;;13.90;71.50;;;;;;5082599;28;20068;-21
2022/12/22 10:03:20;;;;;;;5.00;1.45;;;14.00;71.40;;;;;;5066107;28;20071;-16
2022/12/22 10:06:09;;;;;;;2.47;1.48;;;13.90;71.50;;;;;;5064413;28;20382;-27
2022/12/22 10:08:35;;;;;;;5.05;1.73;;;13.90;71.90;;;;;;5080092;28;20043;-15
2022/12/22 10:11:01;;;;;;;3.92;1.83;;;13.90;72.40;;;;;;5068219;28;20033;-18
2022/12/22 10:13:26;;;;;;;3.45;1.73;;;14.00;72.00;;;;;;5068652;28;20101;-15
2022/12/22 10:15:52;;;;;;;2.72;1.52;;;14.00;72.10;;;;;;5070107;28;20041;-15
2022/12/22 10:18:23;;;;;;;3.33;1.92;;;13.90;72.10;;;;;;5086171;28;20096;-24
2022/12/22 10:21:08;;;;;;;2.30;1.27;;;13.90;71.90;;;;;;5069442;28;20036;-22
2022/12/22 10:23:37;;;;;;;3.83;1.67;;;13.90;72.10;;;;;;5068906;28;20497;-23
2022/12/22 10:26:19;;;;;;;4.30;1.48;;;13.90;72.90;;;;;;5085117;28;20404;-35
2022/12/22 10:28:47;;;;;;;2.42;1.67;;;14.00;72.50;;;;;;5068769;28;20045;-18
2022/12/22 10:31:23;;;;;;;3.20;1.92;;;13.90;72.20;;;;;;5068720;28;20501;-17
2022/12/22 10:33:51;;;;;;;3.63;1.35;;;14.00;72.00;;;;;;5069343;28;20599;-19
2022/12/22 10:36:27;;;;;;;2.10;1.38;;;14.00;72.60;;;;;;5070869;28;20037;-27
2022/12/22 10:39:01;;;;;;;3.88;1.40;;;13.90;72.60;;;;;;5083640;28;20052;-14
2022/12/22 10:41:31;;;;;;;4.22;2.00;;;13.90;71.40;;;;;;5065896;28;20047;-20
2022/12/22 10:44:03;;;;;;;3.22;1.50;;;13.90;72.80;;;;;;5083860;28;20127;-20
2022/12/22 10:46:36;;;;;;;4.40;1.65;;;13.90;72.20;;;;;;5084169;28;20127;-16
2022/12/22 10:49:18;;;;;;;2.60;1.42;;;13.90;72.40;;;;;;5068062;28;20044;-15
2022/12/22 10:51:47;;;;;;;2.80;1.42;;;13.90;71.90;;;;;;5068389;28;20498;-14
2022/12/22 10:54:26;;;;;;;3.47;1.77;;;13.90;72.00;;;;;;5069654;28;20046;-16
2022/12/22 10:56:58;;;;;;;2.72;1.40;;;13.90;72.80;;;;;;5068048;28;20657;-21
2022/12/22 10:59:24;;;;;;;2.33;1.25;;;14.00;72.50;;;;;;5068394;28;20037;-16
2022/12/22 11:01:50;;;;;;;2.80;1.55;;;14.00;72.10;;;;;;5069535;28;20106;-14
2022/12/22 11:04:23;;;;;;;4.35;1.75;;;14.00;73.20;;;;;;5069364;28;20089;-16
2022/12/22 11:06:49;;;;;;;4.07;1.95;;;13.90;72.80;;;;;;5068029;28;20059;-24
2022/12/22 11:09:15;;;;;;;2.33;1.52;;;13.90;72.40;;;;;;5068734;28;20040;-26
2022/12/22 11:11:50;;;;;;;2.38;1.58;;;13.90;73.30;;;;;;5083896;28;20390;-22
2022/12/22 11:14:31;;;;;;;3.50;1.50;;;13.90;73.40;;;;;;5066483;28;20036;-15
2022/12/22 11:17:10;;;;;;;5.22;1.90;;;13.90;72.30;;;;;;5067501;28;21881;-14
2022/12/22 11:19:44;;;;;;;4.70;2.22;;;13.90;73.30;;;;;;5066649;28;20040;-21
2022/12/22 11:22:18;;;;;;;;;;;13.90;74.20;;;;;;5069099;28;20158;-15
2022/12/22 11:25:10;;;;;;;4.32;1.88;;;13.90;73.40;;;;;;5068330;28;19920;-14
2022/12/22 11:27:44;;;;;;;3.35;1.95;;;13.90;74.20;;;;;;5079786;28;20035;-16
2022/12/22 11:30:17;;;;;;;2.30;1.48;;;13.90;73.30;;;;;;5083967;28;20036;-19
2022/12/22 11:32:52;;;;;;;2.88;1.42;;;13.90;73.40;;;;;;5066441;28;20434;-26
2022/12/22 11:35:29;;;;;;;3.45;1.45;;;13.90;72.80;;;;;;5083419;28;20049;-14
2022/12/22 11:38:16;;;;;;;2.35;1.65;;;13.90;73.80;;;;;;5063986;28;20098;-17
2022/12/22 11:40:47;;;;;;;3.72;1.63;;;13.90;73.80;;;;;;5064160;28;20056;-19
2022/12/22 11:43:28;;;;;;;3.22;1.77;;;13.90;72.30;;;;;;5066768;28;20056;-21
2022/12/22 11:46:25;;;;;;;3.78;1.63;;;13.90;73.00;;;;;;5068794;28;20036;-13
2022/12/22 11:48:58;;;;;;;1.80;1.40;;;13.90;72.10;;;;;;5079056;28;20048;-19
2022/12/22 11:51:46;;;;;;;3.37;2.13;;;13.90;72.80;;;;;;5068497;28;20029;-20
2022/12/22 11:54:30;;;;;;;3.20;1.63;;;14.00;71.80;;;;;;5067551;28;20037;-25
2022/12/22 11:57:01;;;;;;;2.85;1.38;;;13.90;71.80;;;;;;5064689;28;20040;-18
2022/12/22 11:59:37;;;;;;;2.33;1.25;;;13.90;72.30;;;;;;5049891;28;20463;-14
2022/12/22 12:02:40;;;;;;;2.28;1.20;;;13.90;71.90;;;;;;5064242;28;20036;-24
2022/12/22 12:05:18;;;;;;;3.45;1.50;;;13.90;72.50;;;;;;5066392;28;20048;-33
2022/12/22 12:07:53;;;;;;;2.33;1.60;;;13.90;72.50;;;;;;5066983;28;20115;-18
2022/12/22 12:10:21;;;;;;;2.53;1.35;;;14.00;71.70;;;;;;5079670;28;20169;-21
2022/12/22 12:13:02;;;;;;;1.80;1.67;;;14.00;71.70;;;;;;5067040;28;20040;-18
2022/12/22 12:15:37;;;;;;;1.90;1.25;;;14.10;71.40;;;;;;5065889;28;20047;-15
2022/12/22 12:18:22;;;;;;;1.77;1.00;;;14.10;71.50;;;;;;5065927;28;20075;-18
2022/12/22 12:21:09;;;;;;;2.25;1.45;;;14.10;71.20;;;;;;5065676;28;20055;-17
2022/12/22 12:23:59;;;;;;;1.88;1.40;;;14.00;71.30;;;;;;5066575;28;20140;-16
2022/12/22 12:26:32;;;;;;;1.65;1.35;;;14.00;71.20;;;;;;5064685;28;20037;-13
2022/12/22 12:29:18;;;;;;;1.50;0.90;;;14.10;71.00;;;;;;5049230;28;20032;-27
2022/12/22 12:32:03;;;;;;;1.70;0.95;;;14.00;71.30;;;;;;5064014;28;20788;-27
2022/12/22 12:34:30;;;;;;;1.92;1.20;;;14.00;71.40;;;;;;5064278;28;20105;-27
2022/12/22 12:37:27;;;;;;;1.60;1.10;;;14.00;71.10;;;;;;5064423;28;20063;-21
2022/12/22 12:40:24;;;;;;;1.60;1.00;;;14.20;70.50;;;;;;5064363;28;20044;-28
2022/12/22 12:42:50;;;;;;;1.50;1.00;;;14.10;71.10;;;;;;5064797;28;20056;-14
2022/12/22 12:45:41;;;;;;;2.05;0.98;;;14.10;70.40;;;;;;5066933;28;20102;-14
2022/12/22 12:48:19;;;;;;;1.38;0.93;;;14.20;70.60;;;;;;5062595;28;20037;-19
2022/12/22 12:50:51;;;;;;;1.80;1.05;;;14.10;70.80;;;;;;5062954;28;20052;-16
2022/12/22 12:53:18;;;;;;;1.60;0.93;;;14.10;70.70;;;;;;5067451;28;20052;-17
2022/12/22 12:55:50;;;;;;;2.22;1.25;;;14.10;70.90;;;;;;5066854;28;20041;-37
2022/12/22 12:58:46;;;;;;;1.08;0.95;;;14.10;70.60;;;;;;5066222;28;20075;-27
2022/12/22 13:01:28;;;;;;;1.55;1.15;;;14.10;70.80;;;;;;5096154;28;20036;-13
2022/12/22 13:03:53;;;;;;;1.25;1.00;;;14.10;70.50;;;;;;5079782;28;20060;-27
2022/12/22 13:06:47;;;;;;;1.23;1.00;;;14.00;70.70;;;;;;5065960;28;20437;-38
2022/12/22 13:09:20;;;;;;;1.63;0.95;;;14.00;71.20;;;;;;5064248;28;20062;-15
2022/12/22 13:11:47;;;;;;;1.15;0.90;;;14.00;71.00;;;;;;5081531;28;20032;-15
2022/12/22 13:14:56;;;;;;;1.58;1.05;;;14.10;71.30;;;;;;5066257;28;20119;-15
2022/12/22 13:17:40;;;;;;;1.90;1.17;;;14.10;71.00;;;;;;5001407;28;20081;-14
2022/12/22 13:20:12;;;;;;;1.15;0.95;;;14.10;70.90;;;;;;5004569;28;20065;-14
2022/12/22 13:22:37;;;;;;;1.67;1.20;;;14.00;71.20;;;;;;5003092;28;20621;-28
2022/12/22 13:25:03;;;;;;;1.67;1.30;;;14.10;70.80;;;;;;4988858;28;20538;-24
2022/12/22 13:27:29;;;;;;;1.77;1.00;;;14.00;71.00;;;;;;4988096;28;20038;-21
2022/12/22 13:29:54;;;;;;;1.60;1.10;;;14.00;71.10;;;;;;4985665;28;20458;-12
2022/12/22 13:32:24;;;;;;;1.52;0.82;;;14.10;70.70;;;;;;4988764;28;20046;-14
2022/12/22 13:34:59;;;;;;;1.33;1.00;;;14.10;70.80;;;;;;5003758;28;20038;-18
2022/12/22 13:37:26;;;;;;;1.80;1.33;;;14.10;70.20;;;;;;5001707;28;20034;-23
2022/12/22 13:40:21;;;;;;;2.33;1.00;;;14.10;70.90;;;;;;5002724;28;20034;-20
2022/12/22 13:42:51;;;;;;;1.05;0.90;;;14.00;71.00;;;;;;5006561;28;20050;-23
2022/12/22 13:45:34;;;;;;;1.60;1.05;;;14.00;71.20;;;;;;4992633;28;20125;-21
2022/12/22 13:48:03;;;;;;;1.30;0.90;;;14.00;71.30;;;;;;5008322;28;20573;-19
2022/12/22 13:50:32;;;;;;;1.42;1.00;;;14.00;71.30;;;;;;5007685;28;20285;-19
2022/12/22 13:52:58;;;;;;;1.02;0.80;;;14.00;71.20;;;;;;4990696;28;21065;-23
2022/12/22 13:55:25;;;;;;;0.98;0.75;;;14.00;71.30;;;;;;5045293;28;20143;-19
2022/12/22 13:57:51;;;;;;;0.90;0.82;;;14.00;71.40;;;;;;5083167;28;20041;-13
2022/12/22 14:00:22;;;;;;;1.13;1.02;;;14.00;71.20;;;;;;5084312;28;20102;-16
2022/12/22 14:02:47;;;;;;;1.50;0.90;;;14.00;71.30;;;;;;5065964;28;20557;-23
2022/12/22 14:05:14;;;;;;;1.02;0.90;;;14.00;71.60;;;;;;5070262;28;20043;-18
2022/12/22 14:07:40;;;;;;;1.30;1.17;;;14.00;71.10;;;;;;5069266;28;20401;-22
2022/12/22 14:10:06;;;;;;;1.10;0.82;;;14.00;71.30;;;;;;5068742;28;20397;-26
2022/12/22 14:12:39;;;;;;;1.13;0.90;;;14.00;71.30;;;;;;5068607;28;20048;-14
2022/12/22 14:15:08;;;;;;;1.00;0.80;;;14.00;71.30;;;;;;5052370;28;20413;-17
2022/12/22 14:17:34;;;;;;;1.30;1.08;;;14.00;71.50;;;;;;5068185;28;20052;-15
2022/12/22 14:20:27;;;;;;;0.68;0.65;;;14.00;71.60;;;;;;5085453;28;20541;-17
2022/12/22 14:23:07;;;;;;;0.60;0.52;;;14.00;71.70;;;;;;5066511;28;20120;-15
2022/12/22 14:25:35;;;;;;;1.67;1.00;;;14.00;71.40;;;;;;5082861;28;20062;-13
2022/12/22 14:28:00;;;;;;;1.67;0.88;;;14.00;71.50;;;;;;5084414;28;20126;-23
2022/12/22 14:30:28;;;;;;;0.68;0.65;;;14.00;71.30;;;;;;5068646;28;20107;-15
2022/12/22 14:32:55;;;;;;;0.73;0.70;;;14.00;71.10;;;;;;5083552;28;20097;-22
2022/12/22 14:35:20;;;;;;;1.23;0.90;;;14.00;71.50;;;;;;5067659;28;20114;-21
2022/12/22 14:37:50;;;;;;;1.00;0.65;;;14.00;72.00;;;;;;5068936;28;20064;-40
2022/12/22 14:40:29;;;;;;;0.65;0.60;;;14.00;71.80;;;;;;5068493;28;20037;-15
2022/12/22 14:42:55;;;;;;;1.10;0.90;;;14.00;71.60;;;;;;5067971;28;20061;-28
2022/12/22 14:45:21;;;;;;;1.45;1.15;;;14.00;71.90;;;;;;5085418;28;20041;-25
2022/12/22 14:47:47;;;;;;;1.10;0.80;;;14.00;71.50;;;;;;5084510;28;20079;-16
2022/12/22 14:50:20;;;;;;;1.25;0.75;;;14.00;72.10;;;;;;5069712;28;20634;-19
2022/12/22 14:52:50;;;;;;;0.68;0.68;;;14.00;72.10;;;;;;5082750;28;20044;-20
2022/12/22 14:55:24;;;;;;;1.17;0.85;;;14.00;72.10;;;;;;5084606;28;20059;-27
2022/12/22 14:57:53;;;;;;;0.70;0.60;;;14.00;72.10;;;;;;5083616;28;20045;-19
2022/12/22 15:00:21;;;;;;;0.82;0.82;;;14.00;72.20;;;;;;5064497;28;20270;-14
2022/12/22 15:02:55;;;;;;;0.85;0.65;;;14.00;72.10;;;;;;5068742;28;20041;-48
2022/12/22 15:05:27;;;;;;;1.08;0.88;;;14.10;71.80;;;;;;5068321;28;20059;-22
2022/12/22 15:07:54;;;;;;;1.38;1.10;;;14.00;71.80;;;;;;5068285;28;20045;-21
2022/12/22 15:10:20;;;;;;;0.75;0.75;;;14.00;71.80;;;;;;5069418;28;20036;-15
2022/12/22 15:12:46;;;;;;;1.00;0.90;;;14.00;72.20;;;;;;5083752;28;20044;-27
2022/12/22 15:15:14;;;;;;;1.38;0.65;;;14.10;72.00;;;;;;5067082;28;20041;-18
2022/12/22 15:17:40;;;;;;;0.85;0.73;;;14.00;72.10;;;;;;5067867;28;20045;-21
2022/12/22 15:20:08;;;;;;;0.98;0.55;;;14.00;72.10;;;;;;5084200;28;20042;-26
2022/12/22 15:22:34;;;;;;;0.65;0.50;;;14.10;72.20;;;;;;5083884;28;20454;-15
2022/12/22 15:24:59;;;;;;;0.50;0.50;;;14.10;72.20;;;;;;5069051;28;20131;-12
2022/12/22 15:27:25;;;;;;;0.70;0.70;;;14.00;72.20;;;;;;5067755;28;20041;-20
2022/12/22 15:29:50;;;;;;;1.00;0.80;;;14.00;72.30;;;;;;5068250;28;20057;-16
2022/12/22 15:32:16;;;;;;;0.68;0.55;;;14.00;72.30;;;;;;5068318;28;20071;-17
2022/12/22 15:34:42;;;;;;;1.23;0.98;;;14.00;72.30;;;;;;5066187;28;20078;-16
2022/12/22 15:37:10;;;;;;;0.73;0.60;;;14.00;72.40;;;;;;5066822;28;20049;-15
2022/12/22 15:39:36;;;;;;;0.77;0.50;;;14.00;72.50;;;;;;5084192;28;20055;-23
2022/12/22 15:42:01;;;;;;;0.50;0.40;;;14.00;72.50;;;;;;5067400;28;20044;-37
2022/12/22 15:44:27;;;;;;;0.60;0.60;;;14.10;72.20;;;;;;5067821;28;20521;-22
2022/12/22 15:46:56;;;;;;;0.98;0.57;;;14.10;72.50;;;;;;5067538;28;20060;-26
2022/12/22 15:49:24;;;;;;;0.60;0.50;;;14.10;72.10;;;;;;5066723;28;20040;-24
2022/12/22 15:51:52;;;;;;;0.50;0.43;;;14.00;72.00;;;;;;5067753;28;20075;-21
2022/12/22 15:54:18;;;;;;;0.60;0.50;;;14.00;72.20;;;;;;5066589;28;20562;-16
2022/12/22 15:56:43;;;;;;;1.15;0.45;;;14.00;72.10;;;;;;5065731;28;20127;-21
2022/12/22 15:59:29;;;;;;;0.55;0.52;;;14.10;72.30;;;;;;5083290;28;20037;-17
2022/12/22 16:01:56;;;;;;;0.45;0.45;;;14.00;72.40;;;;;;5064313;28;20045;-16
2022/12/22 16:04:22;;;;;;;0.85;0.70;;;14.00;71.90;;;;;;5066346;28;20124;-18
2022/12/22 16:06:49;;;;;;;0.65;0.60;;;14.10;72.10;;;;;;5066935;28;20048;-15
2022/12/22 16:09:20;;;;;;;0.90;0.80;;;14.00;72.10;;;;;;5067927;28;20040;-13
2022/12/22 16:11:47;;;;;;;0.73;0.70;;;14.00;72.10;;;;;;5062883;28;20068;-13
2022/12/22 16:14:13;;;;;;;1.08;0.50;;;14.10;72.50;;;;;;5068153;28;20039;-17
2022/12/22 16:16:40;;;;;;;0.68;0.40;;;14.10;72.30;;;;;;5067431;28;20040;-37
2022/12/22 16:19:10;;;;;;;1.05;0.63;;;14.10;72.10;;;;;;5066224;28;20048;-14
2022/12/22 16:21:35;;;;;;;0.43;0.43;;;14.00;72.30;;;;;;5064134;28;20036;-14
2022/12/22 16:24:02;;;;;;;0.60;0.38;;;14.00;72.50;;;;;;5067002;28;20048;-16
2022/12/22 16:26:28;;;;;;;0.40;0.40;;;14.00;72.50;;;;;;5067782;28;20051;-28
2022/12/22 16:28:54;;;;;;;0.40;0.40;;;14.10;72.00;;;;;;5082048;28;20115;-14
2022/12/22 16:31:21;;;;;;;0.60;0.60;;;14.10;72.30;;;;;;5067645;28;21975;-29
2022/12/22 16:33:47;;;;;;;0.40;0.40;;;14.10;72.10;;;;;;5067986;28;20036;-16
2022/12/22 16:36:12;;;;;;;0.70;0.40;;;14.10;72.20;;;;;;5067807;28;20539;-16